Terminal Aerodrome Forecast
Issued by NWS Amarillo, TX

Home | Current Version | Previous Version | Text Only | Print | Product List | Glossary On
Versions: 1 2 3 4 5 6 7 8 9 10 11 12 13 14 15 16 17
000
FTUS44 KAMA 080500
TAFGUY
TAF
KGUY 080521Z 0806/0906 12004KT P6SM BKN150
     FM081000 VRB04KT 3SM BR FEW010 OVC150
     FM081500 16013KT P6SM BKN050
     FM090000 16016KT P6SM VCTS BKN060CB=

USA.gov is the U.S. government's official web portal to all federal, state and local government web resources and services.